Time;durP1;ratioP1;P1;durP2;ratioP2;P2;SDS_P1;SDS_P2;PMS_P1;PMS_P2;Temp;Humidity;BMP_temperature;BMP_pressure;BME280_temperature;BME280_humidity;BME280_pressure;Samples;Min_cycle;Max_cycle;Signal;HPM_P1;HPM_P2
2023/10/06 00:03:36;;;;;;;14.02;7.55;;;;;;;;;;10271886;28;20540;-61
2023/10/06 00:08:40;;;;;;;14.75;6.18;;;;;;;;;;10272250;28;20631;-61
2023/10/06 00:13:39;;;;;;;13.07;7.10;;;;;;;;;;10271759;28;20515;-61
2023/10/06 00:18:39;;;;;;;21.98;7.30;;;;;;;;;;10270053;28;20075;-61
2023/10/06 00:23:39;;;;;;;18.02;8.00;;;;;;;;;;10273744;28;20076;-61
2023/10/06 00:28:39;;;;;;;11.13;7.03;;;;;;;;;;10278477;28;20065;-61
2023/10/06 00:33:41;;;;;;;10.25;6.47;;;;;;;;;;10271303;28;20072;-60
2023/10/06 00:38:39;;;;;;;13.05;7.13;;;;;;;;;;10270812;28;20073;-61
2023/10/06 00:43:39;;;;;;;9.13;6.60;;;;;;;;;;10267633;28;20064;-60
2023/10/06 00:48:39;;;;;;;13.98;6.82;;;;;;;;;;10277409;28;20572;-61
2023/10/06 00:53:38;;;;;;;11.98;6.10;;;;;;;;;;10278627;28;20068;-60
2023/10/06 00:58:36;;;;;;;12.90;6.82;;;;;;;;;;10277627;28;20065;-61
2023/10/06 01:03:39;;;;;;;10.70;7.10;;;;;;;;;;10277348;28;20083;-61
2023/10/06 01:08:39;;;;;;;9.18;6.57;;;;;;;;;;10279209;28;20096;-61
2023/10/06 01:13:37;;;;;;;14.52;8.05;;;;;;;;;;10276822;28;20123;-61
2023/10/06 01:18:40;;;;;;;10.55;7.07;;;;;;;;;;10283100;28;20084;-61
2023/10/06 01:23:40;;;;;;;14.95;7.18;;;;;;;;;;10281483;28;20080;-61
2023/10/06 01:28:45;;;;;;;9.75;6.80;;;;;;;;;;10276466;28;20076;-61
2023/10/06 01:33:45;;;;;;;10.67;8.20;;;;;;;;;;10279505;28;20075;-61
2023/10/06 01:38:45;;;;;;;14.55;8.60;;;;;;;;;;10276344;28;20361;-61
2023/10/06 01:43:44;;;;;;;15.65;8.13;;;;;;;;;;10276677;28;20076;-61
2023/10/06 01:48:43;;;;;;;13.82;7.63;;;;;;;;;;10275858;28;20065;-61
2023/10/06 01:53:43;;;;;;;12.45;7.68;;;;;;;;;;10277495;28;20072;-61
2023/10/06 01:58:42;;;;;;;14.15;9.35;;;;;;;;;;10291549;28;20502;-61
2023/10/06 02:03:41;;;;;;;11.50;8.30;;;;;;;;;;10273208;28;20095;-60
2023/10/06 02:08:39;;;;;;;20.65;8.52;;;;;;;;;;10277355;28;20076;-62
2023/10/06 02:13:38;;;;;;;12.75;7.88;;;;;;;;;;10275511;28;20510;-61
2023/10/06 02:18:40;;;;;;;13.73;8.20;;;;;;;;;;10283573;28;20510;-61
2023/10/06 02:23:40;;;;;;;16.42;8.38;;;;;;;;;;10273654;28;20079;-60
2023/10/06 02:28:44;;;;;;;14.50;7.80;;;;;;;;;;10275387;28;20077;-61
2023/10/06 02:33:48;;;;;;;10.77;8.40;;;;;;;;;;10274375;28;20072;-61
2023/10/06 02:38:49;;;;;;;13.57;8.40;;;;;;;;;;10270479;28;20076;-61
2023/10/06 02:43:48;;;;;;;13.05;8.85;;;;;;;;;;10275276;28;20069;-60
2023/10/06 02:48:50;;;;;;;11.85;8.88;;;;;;;;;;10288001;28;20087;-61
2023/10/06 02:53:52;;;;;;;19.20;9.80;;;;;;;;;;10273232;28;20538;-61
2023/10/06 02:58:52;;;;;;;15.38;9.70;;;;;;;;;;10271482;28;20076;-61
2023/10/06 03:04:05;;;;;;;14.43;8.00;;;;;;;;;;10280722;28;20076;-60
2023/10/06 03:09:07;;;;;;;14.95;8.40;;;;;;;;;;10270382;28;20080;-61
2023/10/06 03:14:07;;;;;;;20.55;9.30;;;;;;;;;;10270389;28;20089;-60
2023/10/06 03:19:12;;;;;;;16.75;9.55;;;;;;;;;;10287341;28;20084;-60
2023/10/06 03:24:16;;;;;;;15.32;9.60;;;;;;;;;;10285820;28;20080;-60
2023/10/06 03:29:28;;;;;;;13.18;9.77;;;;;;;;;;10285042;28;20514;-61
2023/10/06 03:34:28;;;;;;;15.48;10.65;;;;;;;;;;10274160;28;20080;-62
2023/10/06 03:39:30;;;;;;;15.27;10.13;;;;;;;;;;10272312;28;20072;-59
2023/10/06 03:44:30;;;;;;;24.73;9.82;;;;;;;;;;10281147;28;20079;-61
2023/10/06 03:49:33;;;;;;;18.02;9.45;;;;;;;;;;10269678;28;20081;-61
2023/10/06 03:54:33;;;;;;;15.67;9.70;;;;;;;;;;10283626;28;20080;-60
2023/10/06 03:59:31;;;;;;;14.02;9.32;;;;;;;;;;10269432;28;20083;-60
2023/10/06 04:04:30;;;;;;;18.65;10.32;;;;;;;;;;10271742;28;20068;-60
2023/10/06 04:09:30;;;;;;;21.73;10.13;;;;;;;;;;10271755;28;20072;-60
2023/10/06 04:14:31;;;;;;;17.17;9.93;;;;;;;;;;10269903;28;20084;-60
2023/10/06 04:19:34;;;;;;;16.25;10.63;;;;;;;;;;10270732;28;20526;-60
2023/10/06 04:24:32;;;;;;;15.38;10.20;;;;;;;;;;10267618;28;20065;-60
2023/10/06 04:29:34;;;;;;;16.55;10.57;;;;;;;;;;10264439;28;20541;-60
2023/10/06 04:34:36;;;;;;;15.48;9.90;;;;;;;;;;10265144;28;20064;-60
2023/10/06 04:39:38;;;;;;;21.27;11.18;;;;;;;;;;10266120;28;20083;-61
2023/10/06 04:44:37;;;;;;;21.80;11.07;;;;;;;;;;10263455;28;20472;-61
2023/10/06 04:49:36;;;;;;;16.13;10.40;;;;;;;;;;10265058;28;20073;-61
2023/10/06 04:54:35;;;;;;;19.55;11.00;;;;;;;;;;10264709;28;20369;-61
2023/10/06 04:59:33;;;;;;;21.60;10.10;;;;;;;;;;10265579;28;20065;-61
2023/10/06 05:04:31;;;;;;;21.20;11.77;;;;;;;;;;10265837;28;20067;-61
2023/10/06 05:09:31;;;;;;;16.77;10.05;;;;;;;;;;10266491;28;20075;-61
2023/10/06 05:14:29;;;;;;;19.23;11.07;;;;;;;;;;10261320;28;20076;-61
2023/10/06 05:19:27;;;;;;;21.27;12.20;;;;;;;;;;10263557;28;20064;-61
2023/10/06 05:24:25;;;;;;;21.00;11.05;;;;;;;;;;10264760;28;20493;-60
2023/10/06 05:29:26;;;;;;;19.27;12.13;;;;;;;;;;10260497;28;20073;-61
2023/10/06 05:34:24;;;;;;;23.10;12.55;;;;;;;;;;10259723;28;20068;-62
2023/10/06 05:39:24;;;;;;;29.25;12.13;;;;;;;;;;10267703;28;20075;-61
2023/10/06 05:44:23;;;;;;;18.00;12.02;;;;;;;;;;10278748;28;20080;-61
2023/10/06 05:49:22;;;;;;;28.05;12.35;;;;;;;;;;10272987;28;20557;-60
2023/10/06 05:54:21;;;;;;;19.20;10.70;;;;;;;;;;10273555;28;20533;-60
2023/10/06 05:59:21;;;;;;;21.52;11.25;;;;;;;;;;10271452;28;20076;-60
2023/10/06 06:04:20;;;;;;;19.88;11.73;;;;;;;;;;10273989;28;20069;-60
2023/10/06 06:09:19;;;;;;;17.20;11.07;;;;;;;;;;10276048;28;20068;-61
2023/10/06 06:14:21;;;;;;;23.08;11.57;;;;;;;;;;10265076;28;20514;-60
2023/10/06 06:19:20;;;;;;;18.00;13.93;;;;;;;;;;10278533;28;20476;-61
2023/10/06 06:24:22;;;;;;;19.15;14.27;;;;;;;;;;10272411;28;20072;-61
2023/10/06 06:29:20;;;;;;;18.40;11.93;;;;;;;;;;10273484;28;20083;-61
2023/10/06 06:34:18;;;;;;;15.88;11.43;;;;;;;;;;10272756;28;20060;-61
2023/10/06 06:39:17;;;;;;;25.27;11.05;;;;;;;;;;10266664;28;20338;-61
2023/10/06 06:44:18;;;;;;;15.95;9.88;;;;;;;;;;10273356;28;20092;-60
2023/10/06 06:49:17;;;;;;;18.38;9.65;;;;;;;;;;10274460;28;20077;-61
2023/10/06 06:54:15;;;;;;;22.65;10.48;;;;;;;;;;10269356;28;20067;-60
2023/10/06 06:59:14;;;;;;;20.30;9.65;;;;;;;;;;10263618;28;20529;-62
2023/10/06 07:04:13;;;;;;;17.05;9.32;;;;;;;;;;10265365;28;20068;-61
2023/10/06 07:09:13;;;;;;;24.73;10.80;;;;;;;;;;10265059;28;20128;-61
2023/10/06 07:14:14;;;;;;;16.25;10.52;;;;;;;;;;10268827;28;20088;-61
2023/10/06 07:19:14;;;;;;;15.48;9.95;;;;;;;;;;10274652;28;20064;-59
2023/10/06 07:24:13;;;;;;;16.92;10.27;;;;;;;;;;10274150;28;20528;-59
2023/10/06 07:29:11;;;;;;;22.50;9.98;;;;;;;;;;10271383;28;20076;-61
2023/10/06 07:34:11;;;;;;;21.10;9.48;;;;;;;;;;10270909;28;20197;-60
2023/10/06 07:39:20;;;;;;;16.38;10.05;;;;;;;;;;10272224;28;20080;-61
2023/10/06 07:44:20;;;;;;;19.85;10.88;;;;;;;;;;10272376;28;20498;-61
2023/10/06 07:49:19;;;;;;;20.25;10.02;;;;;;;;;;10270529;28;20080;-61
2023/10/06 07:54:18;;;;;;;20.27;8.98;;;;;;;;;;10278497;28;20080;-61
2023/10/06 07:59:16;;;;;;;22.63;9.95;;;;;;;;;;10272442;28;20498;-61
2023/10/06 08:04:15;;;;;;;14.63;8.48;;;;;;;;;;10271820;28;20073;-60
2023/10/06 08:09:13;;;;;;;17.00;9.18;;;;;;;;;;10271140;28;20069;-60
2023/10/06 08:14:13;;;;;;;13.25;9.25;;;;;;;;;;10270167;28;20076;-60
2023/10/06 08:19:12;;;;;;;16.40;7.75;;;;;;;;;;10272007;28;20084;-60
2023/10/06 08:24:11;;;;;;;20.05;9.23;;;;;;;;;;10269707;28;20071;-60
2023/10/06 08:29:09;;;;;;;14.90;7.88;;;;;;;;;;10275492;28;20077;-61
2023/10/06 08:34:11;;;;;;;20.33;8.48;;;;;;;;;;10271541;28;20466;-61
2023/10/06 08:39:13;;;;;;;12.98;7.88;;;;;;;;;;10272266;28;20083;-61
2023/10/06 08:44:12;;;;;;;14.88;7.75;;;;;;;;;;10270032;28;20068;-61
2023/10/06 08:49:16;;;;;;;13.25;7.53;;;;;;;;;;10271269;28;20095;-60
2023/10/06 08:54:15;;;;;;;14.77;7.50;;;;;;;;;;10269950;28;20083;-61
2023/10/06 08:59:16;;;;;;;21.95;8.15;;;;;;;;;;10269633;28;20091;-60
2023/10/06 09:04:16;;;;;;;25.38;8.60;;;;;;;;;;10270210;28;20076;-60
2023/10/06 09:09:26;;;;;;;20.60;7.32;;;;;;;;;;10275658;28;20072;-61
2023/10/06 09:14:25;;;;;;;15.43;7.03;;;;;;;;;;10278478;28;20123;-61
2023/10/06 09:19:24;;;;;;;14.13;7.30;;;;;;;;;;10283099;28;20080;-60
2023/10/06 09:24:23;;;;;;;16.98;8.60;;;;;;;;;;10290984;28;20080;-61
2023/10/06 09:29:30;;;;;;;12.75;7.45;;;;;;;;;;10278195;28;20077;-61
2023/10/06 09:34:32;;;;;;;19.17;9.07;;;;;;;;;;10276299;28;20073;-60
2023/10/06 09:39:32;;;;;;;23.27;8.13;;;;;;;;;;10277744;28;20083;-61
2023/10/06 09:44:33;;;;;;;14.45;7.68;;;;;;;;;;10277005;28;20075;-61
2023/10/06 09:49:35;;;;;;;21.02;8.77;;;;;;;;;;10276925;28;20451;-60
2023/10/06 09:54:35;;;;;;;17.67;8.40;;;;;;;;;;10277246;28;20529;-61
2023/10/06 09:59:34;;;;;;;16.15;8.13;;;;;;;;;;10276255;28;20072;-61
2023/10/06 10:04:34;;;;;;;11.10;7.50;;;;;;;;;;10275154;28;20080;-60
2023/10/06 10:09:34;;;;;;;12.75;7.40;;;;;;;;;;10274932;28;20076;-61
2023/10/06 10:14:44;;;;;;;18.35;8.80;;;;;;;;;;10274828;28;20076;-61
2023/10/06 10:19:46;;;;;;;17.08;8.75;;;;;;;;;;10275216;28;20073;-61
2023/10/06 10:24:45;;;;;;;11.80;7.18;;;;;;;;;;10272876;28;20084;-60
2023/10/06 10:29:47;;;;;;;20.02;8.05;;;;;;;;;;10275107;28;20092;-60
2023/10/06 10:35:03;;;;;;;12.55;7.65;;;;;;;;;;10274130;28;20072;-60
2023/10/06 10:40:04;;;;;;;18.33;8.90;;;;;;;;;;10273020;28;20065;-60
2023/10/06 10:45:21;;;;;;;17.98;7.70;;;;;;;;;;10278455;28;20128;-61
2023/10/06 10:50:20;;;;;;;28.33;8.15;;;;;;;;;;10279684;28;20533;-61
2023/10/06 10:55:26;;;;;;;15.27;7.70;;;;;;;;;;10273084;28;20550;-60
2023/10/06 11:00:25;;;;;;;15.65;7.57;;;;;;;;;;10275387;28;20068;-61
2023/10/06 11:05:24;;;;;;;14.75;7.45;;;;;;;;;;10273516;28;20061;-60
2023/10/06 11:10:23;;;;;;;18.35;6.70;;;;;;;;;;10271574;28;20524;-60
2023/10/06 11:15:28;;;;;;;14.63;5.80;;;;;;;;;;10276693;28;20084;-60
2023/10/06 11:20:33;;;;;;;11.95;6.15;;;;;;;;;;10278085;28;20486;-60
2023/10/06 11:25:35;;;;;;;9.88;6.47;;;;;;;;;;10271771;28;20061;-60
2023/10/06 11:30:36;;;;;;;17.75;6.47;;;;;;;;;;10271327;28;20087;-61
2023/10/06 11:35:35;;;;;;;16.63;5.88;;;;;;;;;;10272086;28;20076;-60
2023/10/06 11:40:35;;;;;;;13.15;6.50;;;;;;;;;;10271064;28;20069;-60
2023/10/06 11:45:36;;;;;;;6.85;5.75;;;;;;;;;;10271658;28;20103;-60
2023/10/06 11:50:35;;;;;;;11.90;6.53;;;;;;;;;;10269299;28;20088;-61
2023/10/06 11:55:35;;;;;;;7.20;5.15;;;;;;;;;;10271271;28;20080;-60
2023/10/06 12:00:41;;;;;;;16.95;5.60;;;;;;;;;;10270622;28;20080;-60
2023/10/06 12:05:41;;;;;;;15.15;6.32;;;;;;;;;;10269448;28;20076;-60
2023/10/06 12:10:46;;;;;;;13.95;5.78;;;;;;;;;;10271748;28;20087;-59
2023/10/06 12:15:46;;;;;;;16.55;6.10;;;;;;;;;;10274305;28;20081;-60
2023/10/06 12:20:44;;;;;;;9.18;5.85;;;;;;;;;;10269699;28;20522;-60
2023/10/06 12:25:44;;;;;;;10.32;5.53;;;;;;;;;;10277750;28;20080;-62
2023/10/06 12:30:42;;;;;;;17.25;5.28;;;;;;;;;;10277921;28;20077;-63
2023/10/06 12:35:42;;;;;;;17.15;7.75;;;;;;;;;;10267812;28;20076;-64
2023/10/06 12:40:41;;;;;;;15.18;7.45;;;;;;;;;;10269227;28;20072;-64
2023/10/06 12:45:39;;;;;;;11.07;6.55;;;;;;;;;;10270181;28;20497;-64
2023/10/06 12:50:40;;;;;;;11.50;6.63;;;;;;;;;;10271640;28;20091;-64
2023/10/06 12:55:42;;;;;;;10.27;6.10;;;;;;;;;;10268502;28;20079;-62
2023/10/06 13:00:41;;;;;;;23.15;6.25;;;;;;;;;;10269648;28;20075;-63
2023/10/06 13:05:40;;;;;;;12.77;6.07;;;;;;;;;;10269697;28;20073;-62
2023/10/06 13:10:38;;;;;;;13.52;7.07;;;;;;;;;;10269943;28;20077;-63
2023/10/06 13:15:39;;;;;;;14.60;6.82;;;;;;;;;;10268886;28;20482;-63
2023/10/06 13:20:38;;;;;;;13.07;5.82;;;;;;;;;;10268587;28;20091;-62
2023/10/06 13:25:37;;;;;;;11.18;5.80;;;;;;;;;;10270272;28;20073;-63
2023/10/06 13:30:35;;;;;;;12.32;6.20;;;;;;;;;;10273039;28;20518;-63
2023/10/06 13:35:35;;;;;;;15.45;5.53;;;;;;;;;;10270666;28;20868;-63
2023/10/06 13:40:37;;;;;;;18.38;6.10;;;;;;;;;;10272594;28;20065;-63
2023/10/06 13:45:35;;;;;;;13.23;5.88;;;;;;;;;;10268138;28;20509;-63
2023/10/06 13:50:36;;;;;;;10.38;5.68;;;;;;;;;;10269001;28;20084;-63
2023/10/06 13:55:35;;;;;;;13.70;7.03;;;;;;;;;;10274307;28;20069;-63
2023/10/06 14:00:35;;;;;;;10.85;5.97;;;;;;;;;;10275597;28;20068;-64
2023/10/06 14:05:38;;;;;;;12.63;5.15;;;;;;;;;;10275770;28;20099;-63
2023/10/06 14:10:37;;;;;;;17.65;7.72;;;;;;;;;;10273792;28;20085;-63
2023/10/06 14:15:44;;;;;;;14.68;5.38;;;;;;;;;;10276309;28;20092;-63
2023/10/06 14:20:45;;;;;;;7.40;5.63;;;;;;;;;;10275219;28;20083;-63
2023/10/06 14:25:44;;;;;;;15.05;9.00;;;;;;;;;;10275563;28;20072;-63
2023/10/06 14:30:44;;;;;;;14.52;6.60;;;;;;;;;;10262897;28;20127;-62
2023/10/06 14:35:53;;;;;;;14.95;5.68;;;;;;;;;;10265799;28;20073;-60
2023/10/06 14:46:10;;;;;;;15.68;6.63;;;;;;;;;;10267582;28;20076;-61
2023/10/06 14:51:09;;;;;;;10.70;5.68;;;;;;;;;;10263360;28;20077;-60
2023/10/06 14:56:11;;;;;;;15.02;6.32;;;;;;;;;;10267149;28;20069;-62
2023/10/06 15:01:12;;;;;;;13.75;6.22;;;;;;;;;;10265727;28;20072;-62
2023/10/06 15:06:12;;;;;;;12.88;5.82;;;;;;;;;;10267383;28;20061;-63
2023/10/06 15:11:13;;;;;;;16.08;6.85;;;;;;;;;;10271266;28;20068;-63
2023/10/06 15:16:12;;;;;;;14.82;6.57;;;;;;;;;;10268462;28;20095;-62
2023/10/06 15:21:13;;;;;;;14.75;5.95;;;;;;;;;;10272667;28;20068;-63
2023/10/06 15:26:11;;;;;;;8.98;5.55;;;;;;;;;;10276264;28;20076;-62
2023/10/06 15:31:12;;;;;;;12.07;6.50;;;;;;;;;;10273592;28;20075;-62
2023/10/06 15:36:14;;;;;;;16.23;6.80;;;;;;;;;;10261569;28;20454;-62
2023/10/06 15:41:15;;;;;;;21.90;6.65;;;;;;;;;;10268002;28;20079;-64
2023/10/06 15:46:15;;;;;;;17.70;6.10;;;;;;;;;;10270538;28;20069;-63
2023/10/06 15:51:18;;;;;;;15.55;5.60;;;;;;;;;;10270300;28;20522;-63
2023/10/06 15:56:19;;;;;;;18.67;5.95;;;;;;;;;;10270361;28;20072;-62
2023/10/06 16:01:18;;;;;;;12.57;6.93;;;;;;;;;;10271200;28;20510;-63
2023/10/06 16:06:21;;;;;;;9.27;5.60;;;;;;;;;;10254556;28;20075;-62
2023/10/06 16:11:20;;;;;;;17.65;5.72;;;;;;;;;;10265661;28;20072;-62
2023/10/06 16:16:19;;;;;;;11.30;5.72;;;;;;;;;;10270330;28;20079;-63
2023/10/06 16:21:21;;;;;;;10.40;5.82;;;;;;;;;;10264656;28;20099;-63
2023/10/06 16:26:19;;;;;;;8.95;4.85;;;;;;;;;;10270594;28;20085;-62
2023/10/06 16:31:17;;;;;;;10.45;5.60;;;;;;;;;;10268963;28;20076;-63
2023/10/06 16:36:16;;;;;;;12.05;5.22;;;;;;;;;;10264699;28;20068;-63
2023/10/06 16:41:15;;;;;;;15.93;6.47;;;;;;;;;;10269485;28;20076;-64
2023/10/06 16:46:16;;;;;;;14.63;4.95;;;;;;;;;;10267212;28;20077;-64
2023/10/06 16:51:14;;;;;;;10.32;4.65;;;;;;;;;;10265550;28;20080;-63
2023/10/06 16:56:12;;;;;;;10.85;5.35;;;;;;;;;;10268678;28;20060;-63
2023/10/06 17:01:12;;;;;;;13.05;5.45;;;;;;;;;;10271410;28;20064;-63
2023/10/06 17:06:11;;;;;;;8.88;5.13;;;;;;;;;;10269350;28;20060;-64
2023/10/06 17:11:11;;;;;;;8.73;5.50;;;;;;;;;;10268582;28;20072;-63
2023/10/06 17:16:13;;;;;;;8.77;5.35;;;;;;;;;;10269716;28;20087;-62
2023/10/06 17:21:13;;;;;;;10.15;4.78;;;;;;;;;;10271001;28;20529;-64
2023/10/06 17:26:13;;;;;;;14.25;5.35;;;;;;;;;;10270183;28;20107;-65
2023/10/06 17:31:14;;;;;;;10.98;5.88;;;;;;;;;;10274187;28;20087;-63
2023/10/06 17:36:16;;;;;;;10.75;5.40;;;;;;;;;;10278876;28;20072;-62
2023/10/06 17:41:16;;;;;;;15.02;5.20;;;;;;;;;;10276947;28;20095;-64
2023/10/06 17:46:14;;;;;;;10.15;5.03;;;;;;;;;;10277004;28;20077;-62
2023/10/06 17:51:15;;;;;;;13.80;6.13;;;;;;;;;;10275430;28;20099;-64
2023/10/06 17:56:17;;;;;;;16.65;5.85;;;;;;;;;;10277527;28;20100;-63
2023/10/06 18:01:16;;;;;;;11.00;5.60;;;;;;;;;;10275773;28;20461;-63
2023/10/06 18:06:15;;;;;;;17.08;6.65;;;;;;;;;;10273716;28;20068;-64
2023/10/06 18:11:15;;;;;;;11.40;5.35;;;;;;;;;;10276142;28;20477;-64
2023/10/06 18:16:13;;;;;;;18.33;5.97;;;;;;;;;;10275429;28;20517;-64
2023/10/06 18:21:13;;;;;;;15.07;5.43;;;;;;;;;;10274549;28;20075;-63
2023/10/06 18:26:13;;;;;;;12.27;6.13;;;;;;;;;;10276460;28;20064;-64
2023/10/06 18:31:13;;;;;;;11.00;4.90;;;;;;;;;;10277908;28;20489;-63
2023/10/06 18:36:11;;;;;;;8.40;4.53;;;;;;;;;;10275984;28;20080;-64
2023/10/06 18:41:12;;;;;;;16.38;5.55;;;;;;;;;;10272908;28;20080;-63
2023/10/06 18:46:11;;;;;;;13.38;5.30;;;;;;;;;;10272730;28;20060;-63
2023/10/06 18:51:10;;;;;;;15.73;5.47;;;;;;;;;;10274006;28;20072;-63
2023/10/06 18:56:08;;;;;;;18.52;4.78;;;;;;;;;;10273770;28;20104;-64
2023/10/06 19:01:07;;;;;;;12.50;5.30;;;;;;;;;;10274093;28;20080;-64
2023/10/06 19:06:05;;;;;;;15.63;5.53;;;;;;;;;;10273696;28;20076;-64
2023/10/06 19:11:09;;;;;;;9.82;5.97;;;;;;;;;;10272126;28;20080;-64
2023/10/06 19:16:09;;;;;;;16.67;6.25;;;;;;;;;;10276093;28;20077;-62
2023/10/06 19:21:08;;;;;;;12.65;5.28;;;;;;;;;;10271257;28;20077;-64
2023/10/06 19:26:09;;;;;;;7.38;4.82;;;;;;;;;;10273579;28;20080;-64
2023/10/06 19:31:07;;;;;;;8.88;5.28;;;;;;;;;;10271274;28;20083;-63
2023/10/06 19:36:06;;;;;;;12.15;5.07;;;;;;;;;;10273191;28;20083;-63
2023/10/06 19:41:14;;;;;;;10.13;6.28;;;;;;;;;;10272964;28;20087;-64
2023/10/06 19:46:13;;;;;;;7.00;4.18;;;;;;;;;;10271281;28;20076;-64
2023/10/06 19:51:12;;;;;;;15.88;5.65;;;;;;;;;;10271871;28;20080;-63
2023/10/06 19:56:12;;;;;;;10.15;4.95;;;;;;;;;;10271230;28;20083;-63
2023/10/06 20:01:11;;;;;;;7.60;5.35;;;;;;;;;;10270786;28;20072;-63
2023/10/06 20:06:10;;;;;;;8.95;5.95;;;;;;;;;;10272288;28;20111;-63
2023/10/06 20:11:08;;;;;;;14.05;4.93;;;;;;;;;;10271011;28;20073;-63
2023/10/06 20:16:12;;;;;;;11.05;4.82;;;;;;;;;;10272120;28;20099;-63
2023/10/06 20:21:12;;;;;;;10.60;5.13;;;;;;;;;;10273257;28;20071;-62
2023/10/06 20:26:10;;;;;;;10.73;6.20;;;;;;;;;;10270960;28;20525;-64
2023/10/06 20:31:09;;;;;;;14.05;5.40;;;;;;;;;;10272350;28;20075;-64
2023/10/06 20:36:08;;;;;;;13.13;4.93;;;;;;;;;;10270661;28;20123;-63
2023/10/06 20:41:07;;;;;;;19.48;5.65;;;;;;;;;;10270236;28;20069;-63
2023/10/06 20:46:05;;;;;;;11.75;5.47;;;;;;;;;;10271040;28;20107;-63
2023/10/06 20:51:05;;;;;;;12.68;5.03;;;;;;;;;;10271261;28;20064;-63
2023/10/06 20:56:06;;;;;;;11.00;5.65;;;;;;;;;;10268504;28;20069;-63
2023/10/06 21:01:05;;;;;;;8.18;4.88;;;;;;;;;;10270504;28;20072;-65
2023/10/06 21:06:04;;;;;;;14.07;4.90;;;;;;;;;;10276156;28;20065;-64
2023/10/06 21:11:02;;;;;;;18.23;5.75;;;;;;;;;;10278157;28;20506;-63
2023/10/06 21:16:03;;;;;;;8.50;5.10;;;;;;;;;;10281900;28;20529;-64
2023/10/06 21:21:01;;;;;;;7.28;4.40;;;;;;;;;;10275905;28;20107;-64
2023/10/06 21:26:00;;;;;;;8.07;4.85;;;;;;;;;;10277380;28;20103;-63
2023/10/06 21:31:03;;;;;;;14.95;5.38;;;;;;;;;;10277410;28;20076;-63
2023/10/06 21:36:02;;;;;;;11.47;5.10;;;;;;;;;;10275646;28;20069;-63
2023/10/06 21:41:01;;;;;;;14.25;5.47;;;;;;;;;;10277147;28;20073;-63
2023/10/06 21:46:02;;;;;;;9.18;5.65;;;;;;;;;;10276518;28;20069;-63
2023/10/06 21:51:06;;;;;;;12.02;5.65;;;;;;;;;;10277837;28;20084;-63
2023/10/06 21:56:11;;;;;;;7.63;5.18;;;;;;;;;;10281425;28;20084;-64
2023/10/06 22:01:13;;;;;;;15.63;5.88;;;;;;;;;;10276167;28;20593;-63
2023/10/06 22:06:13;;;;;;;11.30;4.95;;;;;;;;;;10275314;28;20076;-63
2023/10/06 22:11:11;;;;;;;9.70;4.95;;;;;;;;;;10285842;28;20107;-63
2023/10/06 22:16:12;;;;;;;9.65;4.72;;;;;;;;;;10276702;28;20091;-63
2023/10/06 22:21:11;;;;;;;5.53;4.57;;;;;;;;;;10259609;28;20077;-63
2023/10/06 22:26:11;;;;;;;14.02;4.95;;;;;;;;;;10274405;28;20079;-63
2023/10/06 22:31:09;;;;;;;9.80;4.68;;;;;;;;;;10275246;28;20095;-63
2023/10/06 22:36:07;;;;;;;17.13;5.05;;;;;;;;;;10276647;28;20072;-64
2023/10/06 22:41:05;;;;;;;10.20;4.88;;;;;;;;;;10274035;28;20072;-64
2023/10/06 22:46:05;;;;;;;10.88;4.63;;;;;;;;;;10272433;28;20068;-64
2023/10/06 22:51:03;;;;;;;9.18;3.90;;;;;;;;;;10268913;28;20442;-64
2023/10/06 22:56:02;;;;;;;7.60;4.47;;;;;;;;;;10269687;28;20080;-64
2023/10/06 23:01:00;;;;;;;12.48;5.43;;;;;;;;;;10273819;28;20075;-64
2023/10/06 23:06:01;;;;;;;8.60;5.70;;;;;;;;;;10272807;28;20069;-64
2023/10/06 23:10:59;;;;;;;8.27;5.10;;;;;;;;;;10268240;28;20575;-64
2023/10/06 23:15:58;;;;;;;19.70;5.25;;;;;;;;;;10270494;28;20084;-64
2023/10/06 23:20:56;;;;;;;9.13;4.55;;;;;;;;;;10273131;28;20516;-62
2023/10/06 23:25:56;;;;;;;9.05;4.85;;;;;;;;;;10272794;28;20069;-64
2023/10/06 23:30:54;;;;;;;8.50;5.32;;;;;;;;;;10272538;28;20076;-64
2023/10/06 23:35:53;;;;;;;8.80;5.20;;;;;;;;;;10272413;28;20080;-64
2023/10/06 23:40:51;;;;;;;9.30;4.68;;;;;;;;;;10273484;28;20069;-64
2023/10/06 23:45:51;;;;;;;10.43;5.85;;;;;;;;;;10271805;28;20068;-64
2023/10/06 23:50:52;;;;;;;9.45;5.07;;;;;;;;;;10269859;28;20076;-64
2023/10/06 23:55:52;;;;;;;11.57;5.32;;;;;;;;;;10268060;28;20083;-64
